Time;durP1;ratioP1;P1;durP2;ratioP2;P2;SDS_P1;SDS_P2;PMS_P1;PMS_P2;Temp;Humidity;BMP_temperature;BMP_pressure;BME280_temperature;BME280_humidity;BME280_pressure;Samples;Min_cycle;Max_cycle;Signal;HPM_P1;HPM_P2
2023/05/24 00:00:28;;;;;;;8.00;2.20;;;13.80;61.30;;;;;;5093664;28;20439;-57
2023/05/24 00:02:56;;;;;;;8.97;2.73;;;13.80;61.60;;;;;;5093393;28;20965;-57
2023/05/24 00:05:23;;;;;;;5.60;2.40;;;13.70;61.90;;;;;;5093666;28;20493;-57
2023/05/24 00:07:50;;;;;;;12.00;2.87;;;13.70;61.80;;;;;;5093652;28;20444;-57
2023/05/24 00:10:16;;;;;;;6.30;2.50;;;13.70;62.00;;;;;;5093423;28;20447;-57
2023/05/24 00:12:45;;;;;;;11.60;3.37;;;13.60;62.20;;;;;;5093297;28;20968;-57
2023/05/24 00:15:11;;;;;;;9.87;2.43;;;13.60;62.90;;;;;;5093954;28;20471;-57
2023/05/24 00:17:39;;;;;;;8.93;2.60;;;13.60;63.20;;;;;;5093474;28;20505;-57
2023/05/24 00:20:10;;;;;;;5.13;2.00;;;13.60;63.40;;;;;;5093492;28;20973;-57
2023/05/24 00:22:36;;;;;;;9.07;3.10;;;13.50;63.60;;;;;;5093526;28;20892;-57
2023/05/24 00:25:03;;;;;;;7.40;2.90;;;13.50;64.10;;;;;;5093339;28;20463;-57
2023/05/24 00:27:30;;;;;;;7.60;2.70;;;13.40;63.80;;;;;;5093374;28;20452;-57
2023/05/24 00:29:58;;;;;;;12.27;2.80;;;13.40;64.60;;;;;;5093112;28;20987;-57
2023/05/24 00:32:25;;;;;;;7.93;2.10;;;13.30;64.90;;;;;;5092930;28;20876;-57
2023/05/24 00:34:51;;;;;;;8.70;2.60;;;13.30;65.60;;;;;;5093295;28;20464;-57
2023/05/24 00:37:18;;;;;;;8.63;3.23;;;13.30;65.70;;;;;;5093314;28;20451;-57
2023/05/24 00:39:45;;;;;;;6.43;2.37;;;13.30;65.70;;;;;;5093250;28;20444;-57
2023/05/24 00:42:11;;;;;;;7.47;2.63;;;13.20;65.60;;;;;;5093256;28;20436;-57
2023/05/24 00:44:38;;;;;;;8.37;2.77;;;13.20;66.60;;;;;;5093217;28;20447;-57
2023/05/24 00:47:07;;;;;;;11.83;3.70;;;13.20;66.60;;;;;;5093415;28;20444;-57
2023/05/24 00:49:34;;;;;;;14.93;3.70;;;13.20;66.80;;;;;;5093186;28;20448;-57
2023/05/24 00:52:01;;;;;;;5.30;2.60;;;13.20;66.90;;;;;;5093020;28;20452;-57
2023/05/24 00:54:29;;;;;;;6.27;2.50;;;13.10;67.30;;;;;;5093118;28;20455;-57
2023/05/24 00:56:56;;;;;;;7.70;2.83;;;13.10;67.50;;;;;;5093124;28;20448;-57
2023/05/24 00:59:23;;;;;;;14.80;3.40;;;13.10;67.80;;;;;;5093082;28;20815;-57
2023/05/24 01:01:50;;;;;;;8.37;2.63;;;13.00;67.90;;;;;;5093061;28;20459;-57
2023/05/24 01:04:19;;;;;;;11.10;2.73;;;13.00;68.10;;;;;;5093054;28;20448;-57
2023/05/24 01:07:00;;;;;;;9.47;3.00;;;13.00;68.40;;;;;;5092667;28;20495;-58
2023/05/24 01:09:34;;;;;;;8.27;2.53;;;12.90;68.20;;;;;;5093951;28;20433;-57
2023/05/24 01:12:15;;;;;;;9.10;2.27;;;12.90;68.50;;;;;;5096130;28;20513;-57
2023/05/24 01:14:53;;;;;;;6.57;2.40;;;12.80;69.10;;;;;;5096770;28;20442;-57
2023/05/24 01:17:25;;;;;;;7.47;2.60;;;12.80;69.10;;;;;;5096861;28;20498;-57
2023/05/24 01:19:58;;;;;;;6.23;2.43;;;12.80;69.10;;;;;;5096706;28;20428;-58
2023/05/24 01:22:52;;;;;;;7.23;2.60;;;12.70;69.70;;;;;;5096665;28;20431;-57
2023/05/24 01:25:37;;;;;;;8.50;3.30;;;12.70;69.50;;;;;;5096469;28;20463;-57
2023/05/24 01:28:08;;;;;;;4.93;3.20;;;12.70;69.60;;;;;;5096335;28;20913;-57
2023/05/24 01:30:36;;;;;;;10.63;2.60;;;12.60;70.30;;;;;;5096448;28;20489;-57
2023/05/24 01:33:03;;;;;;;9.57;2.30;;;12.60;70.50;;;;;;5096054;28;21107;-57
2023/05/24 01:35:30;;;;;;;8.20;2.70;;;12.60;71.00;;;;;;5096409;28;20467;-57
2023/05/24 01:37:56;;;;;;;7.33;2.87;;;12.50;70.80;;;;;;5095992;28;20949;-57
2023/05/24 01:40:23;;;;;;;5.30;2.40;;;12.50;70.80;;;;;;5097142;28;20471;-57
2023/05/24 01:42:59;;;;;;;11.33;3.30;;;12.40;70.80;;;;;;5095893;28;20942;-57
2023/05/24 01:45:33;;;;;;;8.20;2.33;;;12.40;71.20;;;;;;5095834;28;20888;-57
2023/05/24 01:48:10;;;;;;;9.70;2.77;;;12.30;71.50;;;;;;5096161;28;20831;-57
2023/05/24 01:50:43;;;;;;;7.90;2.50;;;12.30;71.30;;;;;;5096136;28;20467;-57
2023/05/24 01:53:13;;;;;;;6.83;2.40;;;12.20;71.60;;;;;;5096086;28;20464;-57
2023/05/24 01:55:41;;;;;;;10.40;2.50;;;12.20;71.90;;;;;;5096030;28;20463;-57
2023/05/24 01:58:10;;;;;;;6.83;2.10;;;12.10;72.00;;;;;;5095690;28;20817;-57
2023/05/24 02:00:40;;;;;;;7.87;3.17;;;12.10;72.60;;;;;;5095884;28;20448;-57
2023/05/24 02:03:07;;;;;;;6.77;1.93;;;12.10;72.50;;;;;;5095930;28;20444;-57
2023/05/24 02:05:33;;;;;;;4.70;2.00;;;12.00;72.40;;;;;;5095465;28;20888;-57
2023/05/24 02:08:00;;;;;;;7.30;2.33;;;12.00;73.10;;;;;;5095796;28;20792;-57
2023/05/24 02:10:27;;;;;;;11.00;2.17;;;11.90;73.30;;;;;;5095458;28;20867;-57
2023/05/24 02:12:53;;;;;;;7.47;2.63;;;11.90;73.70;;;;;;5095344;28;20479;-57
2023/05/24 02:15:20;;;;;;;5.93;2.60;;;11.90;74.00;;;;;;5095604;28;20471;-57
2023/05/24 02:17:48;;;;;;;5.63;2.70;;;11.80;74.00;;;;;;5095656;28;20810;-57
2023/05/24 02:20:16;;;;;;;5.20;1.90;;;11.80;74.30;;;;;;5095525;28;20455;-57
2023/05/24 02:22:42;;;;;;;7.40;2.20;;;11.80;74.50;;;;;;5094821;28;20864;-57
2023/05/24 02:25:09;;;;;;;9.87;2.40;;;11.80;74.80;;;;;;5095377;28;20471;-57
2023/05/24 02:27:36;;;;;;;9.10;3.20;;;11.70;74.80;;;;;;5095421;28;20451;-56
2023/05/24 02:30:03;;;;;;;8.03;3.23;;;11.70;74.80;;;;;;5095267;28;20444;-56
2023/05/24 02:32:30;;;;;;;12.50;3.23;;;11.70;75.10;;;;;;5095248;28;20447;-56
2023/05/24 02:35:00;;;;;;;7.20;3.00;;;11.60;75.00;;;;;;5094867;28;21008;-56
2023/05/24 02:37:27;;;;;;;8.20;2.40;;;11.70;75.40;;;;;;5095204;28;20428;-56
2023/05/24 02:39:54;;;;;;;4.87;2.67;;;11.70;75.70;;;;;;5095070;28;20448;-56
2023/05/24 02:42:20;;;;;;;7.33;2.27;;;11.60;75.60;;;;;;5095389;28;20440;-57
2023/05/24 02:44:48;;;;;;;8.60;2.87;;;11.60;76.00;;;;;;5095043;28;20452;-57
2023/05/24 02:47:15;;;;;;;4.93;2.10;;;11.50;76.00;;;;;;5095029;28;20448;-57
2023/05/24 02:49:41;;;;;;;7.33;2.40;;;11.50;76.00;;;;;;5094967;28;20854;-57
2023/05/24 02:52:10;;;;;;;6.40;2.53;;;11.50;76.00;;;;;;5094917;28;20456;-57
2023/05/24 02:54:36;;;;;;;4.73;2.30;;;11.40;76.00;;;;;;5094791;28;20480;-57
2023/05/24 02:57:05;;;;;;;4.93;2.20;;;11.40;76.10;;;;;;5094861;28;20863;-57
2023/05/24 02:59:32;;;;;;;4.97;2.50;;;11.40;76.10;;;;;;5095045;28;20503;-57
2023/05/24 03:01:59;;;;;;;6.20;3.00;;;11.40;76.10;;;;;;5094872;28;20487;-57
2023/05/24 03:04:25;;;;;;;7.03;2.57;;;11.30;76.10;;;;;;5094645;28;20857;-57
2023/05/24 03:06:52;;;;;;;7.97;2.40;;;11.30;77.20;;;;;;5094617;28;20470;-57
2023/05/24 03:09:20;;;;;;;10.80;3.17;;;11.30;76.70;;;;;;5094767;28;20520;-57
2023/05/24 03:11:47;;;;;;;6.73;2.67;;;11.20;76.50;;;;;;5094182;28;20464;-57
2023/05/24 03:14:16;;;;;;;7.53;2.27;;;11.20;76.40;;;;;;5094488;28;20488;-57
2023/05/24 03:16:42;;;;;;;5.37;2.47;;;11.10;76.90;;;;;;5094171;28;20836;-57
2023/05/24 03:19:09;;;;;;;8.90;2.57;;;11.00;76.80;;;;;;5094610;28;20814;-57
2023/05/24 03:21:36;;;;;;;7.97;3.13;;;11.00;77.20;;;;;;5094681;28;20522;-57
2023/05/24 03:24:03;;;;;;;4.10;2.30;;;11.00;77.30;;;;;;5094353;28;20447;-57
2023/05/24 03:26:31;;;;;;;6.20;2.87;;;11.00;77.40;;;;;;5094469;28;20503;-57
2023/05/24 03:28:57;;;;;;;5.30;2.30;;;11.00;77.60;;;;;;5095091;28;20479;-57
2023/05/24 03:31:25;;;;;;;6.57;2.90;;;11.00;77.60;;;;;;5095384;28;20455;-57
2023/05/24 03:33:52;;;;;;;5.10;2.27;;;10.90;77.50;;;;;;5095707;28;20476;-57
2023/05/24 03:36:19;;;;;;;7.47;2.77;;;10.90;77.80;;;;;;5095158;28;20473;-57
2023/05/24 03:38:46;;;;;;;7.00;2.87;;;10.90;77.80;;;;;;5094308;28;20457;-57
2023/05/24 03:41:12;;;;;;;6.03;2.77;;;10.90;78.20;;;;;;5094415;28;20447;-58
2023/05/24 03:43:41;;;;;;;10.03;2.70;;;10.90;78.30;;;;;;5095283;28;20447;-57
2023/05/24 03:46:08;;;;;;;8.00;2.57;;;10.80;78.00;;;;;;5095895;28;20468;-57
2023/05/24 03:48:34;;;;;;;5.57;2.90;;;10.80;78.30;;;;;;5095012;28;20490;-57
2023/05/24 03:51:01;;;;;;;9.43;2.87;;;10.80;78.60;;;;;;5093887;28;20452;-57
2023/05/24 03:53:28;;;;;;;5.13;2.70;;;10.80;78.80;;;;;;5093950;28;20475;-57
2023/05/24 03:55:54;;;;;;;6.73;2.10;;;10.80;79.00;;;;;;5093396;28;21012;-58
2023/05/24 03:58:21;;;;;;;5.40;2.13;;;10.80;79.30;;;;;;5093764;28;20451;-57
2023/05/24 04:00:49;;;;;;;5.93;2.53;;;10.80;79.40;;;;;;5093467;28;20956;-57
2023/05/24 04:03:18;;;;;;;5.30;2.30;;;10.80;79.30;;;;;;5093670;28;20845;-57
2023/05/24 04:05:45;;;;;;;7.20;3.07;;;10.80;79.70;;;;;;5093643;28;20525;-57
2023/05/24 04:08:13;;;;;;;4.83;2.83;;;10.80;79.90;;;;;;5093937;28;20451;-57
2023/05/24 04:10:40;;;;;;;6.37;2.60;;;10.70;80.10;;;;;;5093395;28;20463;-57
2023/05/24 04:13:06;;;;;;;5.87;2.73;;;10.70;80.40;;;;;;5093462;28;20487;-57
2023/05/24 04:15:33;;;;;;;8.97;2.83;;;10.70;80.90;;;;;;5093423;28;20459;-57
2023/05/24 04:18:01;;;;;;;13.53;3.10;;;10.70;81.40;;;;;;5093173;28;20443;-57
2023/05/24 04:20:28;;;;;;;9.70;3.03;;;10.70;81.50;;;;;;5093456;28;20539;-57
2023/05/24 04:22:55;;;;;;;7.03;2.73;;;10.70;82.40;;;;;;5093506;28;20447;-57
2023/05/24 04:25:22;;;;;;;10.93;3.30;;;10.70;82.90;;;;;;5093481;28;20496;-57
2023/05/24 04:27:49;;;;;;;8.23;3.60;;;10.70;82.90;;;;;;5093088;28;20933;-57
2023/05/24 04:30:16;;;;;;;13.43;3.80;;;10.60;83.10;;;;;;5093341;28;20848;-57
2023/05/24 04:32:44;;;;;;;5.83;2.70;;;10.70;83.60;;;;;;5093341;28;20454;-57
2023/05/24 04:35:12;;;;;;;7.10;3.03;;;10.60;83.30;;;;;;5093187;28;20893;-57
2023/05/24 04:37:39;;;;;;;8.47;3.63;;;10.60;83.30;;;;;;5093398;28;20443;-57
2023/05/24 04:40:08;;;;;;;8.17;3.70;;;10.60;83.70;;;;;;5093332;28;20456;-57
2023/05/24 04:42:35;;;;;;;9.27;3.17;;;10.60;84.40;;;;;;5093193;28;20485;-57
2023/05/24 04:45:02;;;;;;;11.13;3.80;;;10.60;84.40;;;;;;5094882;28;20463;-57
2023/05/24 04:47:28;;;;;;;7.33;3.30;;;10.60;84.70;;;;;;5097027;28;20864;-57
2023/05/24 04:49:55;;;;;;;10.23;3.93;;;10.60;85.20;;;;;;5097259;28;20454;-57
2023/05/24 04:52:23;;;;;;;9.50;3.20;;;10.60;85.80;;;;;;5096877;28;20953;-57
2023/05/24 04:54:50;;;;;;;10.50;3.50;;;10.60;87.10;;;;;;5097094;28;20480;-57
2023/05/24 04:57:17;;;;;;;11.07;3.33;;;10.60;87.10;;;;;;5097204;28;20520;-57
2023/05/24 04:59:44;;;;;;;6.60;3.87;;;10.70;87.50;;;;;;5096786;28;20840;-57
2023/05/24 05:02:11;;;;;;;16.23;6.80;;;10.80;88.10;;;;;;5097076;28;20466;-57
2023/05/24 05:04:37;;;;;;;9.00;4.07;;;10.80;88.20;;;;;;5096955;28;20447;-57
2023/05/24 05:07:04;;;;;;;8.23;3.90;;;10.80;88.60;;;;;;5097148;28;20447;-57
2023/05/24 05:09:32;;;;;;;12.57;4.67;;;10.80;89.30;;;;;;5096630;28;20946;-57
2023/05/24 05:11:59;;;;;;;11.87;4.30;;;10.80;89.90;;;;;;5096488;28;20452;-57
2023/05/24 05:14:26;;;;;;;13.30;4.80;;;10.80;90.20;;;;;;5096762;28;20518;-57
2023/05/24 05:16:53;;;;;;;10.57;3.77;;;10.80;90.30;;;;;;5096724;28;20524;-57
2023/05/24 05:19:20;;;;;;;15.63;3.90;;;10.90;90.50;;;;;;5096653;28;20443;-57
2023/05/24 05:21:46;;;;;;;12.47;4.80;;;11.00;90.70;;;;;;5096721;28;20456;-57
2023/05/24 05:24:14;;;;;;;9.80;3.97;;;11.10;90.70;;;;;;5096664;28;20452;-57
2023/05/24 05:26:42;;;;;;;15.53;4.80;;;11.20;91.00;;;;;;5096503;28;20474;-57
2023/05/24 05:29:09;;;;;;;14.90;5.47;;;11.20;91.10;;;;;;5096400;28;20458;-57
2023/05/24 05:31:36;;;;;;;15.13;5.20;;;11.40;91.30;;;;;;5096512;28;20447;-57
2023/05/24 05:34:03;;;;;;;11.97;5.53;;;11.50;91.30;;;;;;5096428;28;20916;-57
2023/05/24 05:36:29;;;;;;;13.43;5.57;;;11.60;91.10;;;;;;5096371;28;20831;-57
2023/05/24 05:38:56;;;;;;;10.30;4.50;;;11.80;91.00;;;;;;5096195;28;21003;-57
2023/05/24 05:41:23;;;;;;;7.23;4.83;;;12.00;90.90;;;;;;5096295;28;20439;-57
2023/05/24 05:43:51;;;;;;;12.77;4.43;;;12.10;90.60;;;;;;5096270;28;20444;-57
2023/05/24 05:46:19;;;;;;;13.13;4.83;;;12.20;90.40;;;;;;5096172;28;20467;-57
2023/05/24 05:48:46;;;;;;;12.73;5.03;;;12.40;90.40;;;;;;5096145;28;20451;-57
2023/05/24 05:51:13;;;;;;;8.67;4.40;;;12.50;90.20;;;;;;5096119;28;20859;-57
2023/05/24 05:53:39;;;;;;;11.97;4.10;;;12.60;90.00;;;;;;5095687;28;20486;-57
2023/05/24 05:56:06;;;;;;;11.40;4.90;;;12.70;89.60;;;;;;5094801;28;20977;-57
2023/05/24 05:58:33;;;;;;;9.30;4.60;;;12.80;89.70;;;;;;5095974;28;20452;-57
2023/05/24 06:01:01;;;;;;;14.10;4.60;;;12.80;88.50;;;;;;5095926;28;20471;-57
2023/05/24 06:03:28;;;;;;;15.17;4.40;;;12.90;88.40;;;;;;5095848;28;20471;-57
2023/05/24 06:05:54;;;;;;;13.47;4.30;;;13.00;88.90;;;;;;5095782;28;20486;-57
2023/05/24 06:08:21;;;;;;;10.63;4.57;;;13.10;88.80;;;;;;5095789;28;20459;-57
2023/05/24 06:10:48;;;;;;;15.97;5.50;;;13.10;86.70;;;;;;5095539;28;20462;-58
2023/05/24 06:13:14;;;;;;;14.77;6.80;;;13.20;86.70;;;;;;5095671;28;20451;-57
2023/05/24 06:15:41;;;;;;;15.67;4.67;;;13.20;86.10;;;;;;5095181;28;20483;-57
2023/05/24 06:18:09;;;;;;;14.60;4.50;;;13.30;85.70;;;;;;5095843;28;20439;-57
2023/05/24 06:20:36;;;;;;;19.07;5.47;;;13.40;86.00;;;;;;5095242;28;20816;-57
2023/05/24 06:23:03;;;;;;;10.77;5.30;;;13.40;86.80;;;;;;5095522;28;20808;-58
2023/05/24 06:25:31;;;;;;;12.23;5.17;;;13.40;86.80;;;;;;5094920;28;21046;-57
2023/05/24 06:27:58;;;;;;;14.60;4.90;;;13.50;86.50;;;;;;5095365;28;20447;-57
2023/05/24 06:30:25;;;;;;;16.90;4.63;;;13.50;86.80;;;;;;5095365;28;20435;-57
2023/05/24 06:32:52;;;;;;;15.73;5.40;;;13.60;87.60;;;;;;5095415;28;20467;-57
2023/05/24 06:35:20;;;;;;;17.57;5.00;;;13.70;86.30;;;;;;5095321;28;20487;-58
2023/05/24 06:37:47;;;;;;;12.77;5.00;;;13.70;84.60;;;;;;5095223;28;20452;-57
2023/05/24 06:40:13;;;;;;;13.77;4.90;;;13.70;83.80;;;;;;5095266;28;20454;-57
2023/05/24 06:42:40;;;;;;;12.57;4.80;;;13.80;84.30;;;;;;5096365;28;20451;-57
2023/05/24 06:45:08;;;;;;;10.90;4.93;;;13.90;84.00;;;;;;5095104;28;20551;-57
2023/05/24 06:47:35;;;;;;;15.43;5.10;;;13.90;83.60;;;;;;5095107;28;20505;-57
2023/05/24 06:50:03;;;;;;;14.83;6.47;;;14.00;83.20;;;;;;5094753;28;21040;-58
2023/05/24 06:52:31;;;;;;;14.97;4.60;;;14.10;83.80;;;;;;5094952;28;20486;-57
2023/05/24 06:54:57;;;;;;;15.93;4.90;;;14.20;82.60;;;;;;5094830;28;20487;-57
2023/05/24 06:57:25;;;;;;;15.13;5.17;;;14.20;81.60;;;;;;5095081;28;20443;-57
2023/05/24 06:59:52;;;;;;;17.07;5.50;;;14.40;82.80;;;;;;5094803;28;20447;-57
2023/05/24 07:02:22;;;;;;;16.47;5.50;;;14.60;81.40;;;;;;5094808;28;20451;-57
2023/05/24 07:04:49;;;;;;;18.63;5.10;;;14.90;81.00;;;;;;5094631;28;20474;-57
2023/05/24 07:07:16;;;;;;;19.87;5.30;;;15.20;79.80;;;;;;5094636;28;20493;-57
2023/05/24 07:09:44;;;;;;;13.73;4.77;;;15.40;78.00;;;;;;5094451;28;20447;-57
2023/05/24 07:12:12;;;;;;;14.27;4.97;;;15.60;77.10;;;;;;5094260;28;20460;-57
2023/05/24 07:14:38;;;;;;;15.33;4.83;;;15.80;76.40;;;;;;5094380;28;20487;-58
2023/05/24 07:17:05;;;;;;;16.80;4.63;;;16.00;75.30;;;;;;5094191;28;20953;-57
2023/05/24 07:19:33;;;;;;;14.87;5.10;;;16.10;75.10;;;;;;5094033;28;20850;-58
2023/05/24 07:22:00;;;;;;;21.43;5.27;;;16.30;74.00;;;;;;5094411;28;20447;-57
2023/05/24 07:24:27;;;;;;;14.83;5.33;;;16.50;73.40;;;;;;5093956;28;20946;-57
2023/05/24 07:26:56;;;;;;;16.20;5.43;;;16.50;71.90;;;;;;5097195;28;20490;-57
2023/05/24 07:29:23;;;;;;;16.13;5.67;;;16.50;71.50;;;;;;5099142;28;20444;-57
2023/05/24 07:31:49;;;;;;;30.37;5.97;;;16.50;71.40;;;;;;5096362;28;20462;-57
2023/05/24 07:34:16;;;;;;;16.20;4.93;;;16.50;71.80;;;;;;5094148;28;20522;-57
2023/05/24 07:36:44;;;;;;;20.73;4.97;;;16.60;72.30;;;;;;5094177;28;20463;-57
2023/05/24 07:39:14;;;;;;;18.10;5.07;;;16.70;71.30;;;;;;5093992;28;20505;-57
2023/05/24 07:41:41;;;;;;;13.00;4.90;;;16.80;70.70;;;;;;5093786;28;20979;-57
2023/05/24 07:44:09;;;;;;;15.80;4.70;;;16.90;71.50;;;;;;5093905;28;20459;-57
2023/05/24 07:46:36;;;;;;;18.07;6.07;;;17.00;71.80;;;;;;5093680;28;20472;-57
2023/05/24 07:49:03;;;;;;;19.17;5.83;;;17.10;70.90;;;;;;5094798;28;20509;-57
2023/05/24 07:51:31;;;;;;;12.63;5.00;;;17.10;69.40;;;;;;5093834;28;20448;-57
2023/05/24 07:53:58;;;;;;;13.30;4.70;;;17.10;68.70;;;;;;5093781;28;20447;-57
2023/05/24 07:56:25;;;;;;;14.93;4.97;;;17.20;69.40;;;;;;5093723;28;20486;-57
2023/05/24 07:58:52;;;;;;;20.40;5.30;;;17.20;69.20;;;;;;5093783;28;20863;-57
2023/05/24 08:01:20;;;;;;;15.50;5.00;;;17.20;67.30;;;;;;5093715;28;20448;-57
2023/05/24 08:03:47;;;;;;;16.70;4.90;;;17.10;67.40;;;;;;5093667;28;20448;-57
2023/05/24 08:06:13;;;;;;;18.50;5.83;;;17.20;67.80;;;;;;5093611;28;20491;-57
2023/05/24 08:08:40;;;;;;;14.60;4.70;;;17.30;68.90;;;;;;5093615;28;20505;-57
2023/05/24 08:11:07;;;;;;;14.50;4.47;;;17.40;66.80;;;;;;5093456;28;20475;-57
2023/05/24 08:13:34;;;;;;;11.87;4.90;;;17.40;66.70;;;;;;5093289;28;20501;-57
2023/05/24 08:16:01;;;;;;;18.20;5.13;;;17.50;67.20;;;;;;5093060;28;21000;-57
2023/05/24 08:18:29;;;;;;;17.47;5.17;;;17.70;66.50;;;;;;5093741;28;20451;-57
2023/05/24 08:20:56;;;;;;;11.63;4.20;;;17.80;65.00;;;;;;5092684;28;20991;-57
2023/05/24 08:23:22;;;;;;;13.10;4.43;;;17.80;63.60;;;;;;5093475;28;20452;-57
2023/05/24 08:25:49;;;;;;;15.90;4.00;;;17.80;63.10;;;;;;5093578;28;20460;-56
2023/05/24 08:28:17;;;;;;;18.20;5.10;;;17.70;62.80;;;;;;5093402;28;20459;-56
2023/05/24 08:30:43;;;;;;;12.90;3.70;;;17.70;63.20;;;;;;5093054;28;20963;-56
2023/05/24 08:33:10;;;;;;;11.07;3.70;;;17.80;63.00;;;;;;5093011;28;20440;-56
2023/05/24 08:35:38;;;;;;;11.70;4.53;;;18.00;62.80;;;;;;5093127;28;20495;-56
2023/05/24 08:38:05;;;;;;;12.37;4.00;;;18.30;62.70;;;;;;5093327;28;20821;-56
2023/05/24 08:40:32;;;;;;;10.50;4.10;;;18.50;61.80;;;;;;5092987;28;20829;-56
2023/05/24 08:43:01;;;;;;;12.73;3.97;;;18.80;61.40;;;;;;5093196;28;20450;-56
2023/05/24 08:45:31;;;;;;;15.50;4.50;;;19.10;60.20;;;;;;5093164;28;20479;-56
2023/05/24 08:47:58;;;;;;;12.83;4.37;;;19.20;59.50;;;;;;5092895;28;20892;-56
2023/05/24 08:50:25;;;;;;;13.47;4.73;;;19.20;58.40;;;;;;5093173;28;20488;-56
2023/05/24 08:52:54;;;;;;;16.13;5.20;;;19.10;56.80;;;;;;5093153;28;20820;-56
2023/05/24 08:55:22;;;;;;;7.80;3.90;;;18.80;56.90;;;;;;5092980;28;20495;-56
2023/05/24 08:57:50;;;;;;;14.00;4.30;;;18.60;57.90;;;;;;5093131;28;20443;-56
2023/05/24 09:00:18;;;;;;;14.67;6.03;;;18.40;58.40;;;;;;5093088;28;20452;-57
2023/05/24 09:02:46;;;;;;;13.00;4.73;;;18.30;59.40;;;;;;5093133;28;20459;-56
2023/05/24 09:05:15;;;;;;;12.90;5.07;;;18.20;59.40;;;;;;5092982;28;20474;-56
2023/05/24 09:07:44;;;;;;;13.00;5.37;;;18.10;59.20;;;;;;5092705;28;20945;-56
2023/05/24 09:10:12;;;;;;;19.13;5.37;;;17.90;59.50;;;;;;5092847;28;20454;-56
2023/05/24 09:12:44;;;;;;;11.50;4.80;;;17.80;60.50;;;;;;5093002;28;20439;-56
2023/05/24 09:15:11;;;;;;;14.13;5.27;;;17.70;60.90;;;;;;5092918;28;20574;-57
2023/05/24 09:17:39;;;;;;;15.63;4.57;;;17.60;61.30;;;;;;5093179;28;20440;-56
2023/05/24 09:20:09;;;;;;;15.40;5.30;;;17.70;61.30;;;;;;5093475;28;20452;-56
2023/05/24 09:22:37;;;;;;;8.40;4.07;;;17.80;62.00;;;;;;5092916;28;20454;-56
2023/05/24 09:25:06;;;;;;;11.93;4.70;;;18.20;62.70;;;;;;5092834;28;20526;-56
2023/05/24 09:27:35;;;;;;;11.37;4.77;;;18.70;62.70;;;;;;5093158;28;20443;-56
2023/05/24 09:30:04;;;;;;;15.80;4.67;;;19.00;60.00;;;;;;5092815;28;20458;-56
2023/05/24 09:32:31;;;;;;;13.47;4.53;;;19.30;58.00;;;;;;5095125;28;20535;-56
2023/05/24 09:34:58;;;;;;;10.80;3.87;;;19.40;58.10;;;;;;5096400;28;20589;-56
2023/05/24 09:37:28;;;;;;;10.87;5.00;;;19.60;57.50;;;;;;5096415;28;20450;-56
2023/05/24 09:39:56;;;;;;;9.20;4.43;;;19.80;57.90;;;;;;5097377;28;20456;-56
2023/05/24 09:42:26;;;;;;;8.40;4.13;;;19.80;57.70;;;;;;5096143;28;20459;-57
2023/05/24 09:45:00;;;;;;;12.77;4.73;;;19.80;55.90;;;;;;5096294;28;20463;-57
2023/05/24 09:47:29;;;;;;;10.13;4.50;;;19.70;56.20;;;;;;5096032;28;20905;-56
2023/05/24 09:49:56;;;;;;;12.40;4.27;;;19.60;56.40;;;;;;5096214;28;20543;-56
2023/05/24 09:52:22;;;;;;;11.77;5.40;;;19.50;56.40;;;;;;5096156;28;20452;-56
2023/05/24 09:54:49;;;;;;;15.23;4.83;;;19.40;56.00;;;;;;5095925;28;20460;-56
2023/05/24 09:57:16;;;;;;;11.23;4.20;;;19.20;55.90;;;;;;5096067;28;20452;-56
2023/05/24 09:59:44;;;;;;;7.10;3.67;;;19.10;56.90;;;;;;5096057;28;20471;-57
2023/05/24 10:02:12;;;;;;;12.20;4.67;;;18.90;57.20;;;;;;5095986;28;20530;-56
2023/05/24 10:04:39;;;;;;;13.20;4.07;;;18.80;56.80;;;;;;5096077;28;20443;-56
2023/05/24 10:07:06;;;;;;;10.13;4.97;;;18.60;57.00;;;;;;5095562;28;20447;-56
2023/05/24 10:09:35;;;;;;;9.60;4.60;;;18.50;57.70;;;;;;5095776;28;20471;-56
2023/05/24 10:12:04;;;;;;;13.20;4.67;;;18.40;58.60;;;;;;5096223;28;20512;-56
2023/05/24 10:14:33;;;;;;;10.60;5.40;;;18.30;58.70;;;;;;5095757;28;20527;-56
2023/05/24 10:17:00;;;;;;;15.27;4.57;;;18.30;58.50;;;;;;5095633;28;20562;-56
2023/05/24 10:19:28;;;;;;;10.57;4.63;;;18.40;58.60;;;;;;5095574;28;20443;-57
2023/05/24 10:21:56;;;;;;;9.87;3.90;;;18.50;58.70;;;;;;5095207;28;20930;-56
2023/05/24 10:24:29;;;;;;;9.43;4.07;;;18.80;58.40;;;;;;5095185;28;21025;-56
2023/05/24 10:26:57;;;;;;;11.50;4.13;;;19.40;58.10;;;;;;5095381;28;20467;-56
2023/05/24 10:29:33;;;;;;;10.07;4.17;;;20.40;56.50;;;;;;5095423;28;20526;-56
2023/05/24 10:32:00;;;;;;;13.03;4.10;;;21.10;53.50;;;;;;5095395;28;20439;-56
2023/05/24 10:34:29;;;;;;;11.97;4.20;;;21.60;52.00;;;;;;5095427;28;20444;-57
2023/05/24 10:36:57;;;;;;;11.23;4.70;;;22.10;51.90;;;;;;5095107;28;20479;-56
2023/05/24 10:39:25;;;;;;;10.27;4.00;;;22.50;50.40;;;;;;5094860;28;20933;-57
2023/05/24 10:41:55;;;;;;;10.07;4.10;;;22.70;49.00;;;;;;5094971;28;20486;-57
2023/05/24 10:44:22;;;;;;;6.17;3.60;;;23.00;49.10;;;;;;5094976;28;20459;-57
2023/05/24 10:47:20;;;;;;;9.53;4.03;;;23.60;49.00;;;;;;5094666;28;21044;-57
2023/05/24 10:49:52;;;;;;;10.20;4.00;;;24.30;46.30;;;;;;5060429;28;20575;-57
2023/05/24 10:52:19;;;;;;;8.30;3.80;;;24.70;44.30;;;;;;5095039;28;20458;-57
2023/05/24 10:55:03;;;;;;;11.20;4.07;;;25.00;43.10;;;;;;5094810;28;20447;-57
2023/05/24 10:57:30;;;;;;;8.20;4.20;;;25.10;41.60;;;;;;5094890;28;20450;-57
2023/05/24 10:59:58;;;;;;;8.70;3.77;;;25.10;41.80;;;;;;5094477;28;20535;-57
2023/05/24 11:02:28;;;;;;;7.93;4.10;;;25.10;41.60;;;;;;5094779;28;20876;-57
2023/05/24 11:04:58;;;;;;;12.33;4.70;;;25.00;42.30;;;;;;5094698;28;20464;-57
2023/05/24 11:07:25;;;;;;;8.50;4.03;;;24.70;41.10;;;;;;5094369;28;20942;-57
2023/05/24 11:09:58;;;;;;;10.43;4.13;;;24.30;41.70;;;;;;5094588;28;20454;-57
2023/05/24 11:12:31;;;;;;;10.47;4.20;;;23.90;41.50;;;;;;5094296;28;20484;-57
2023/05/24 11:14:59;;;;;;;7.80;3.47;;;23.60;43.10;;;;;;5094192;28;20897;-57
2023/05/24 11:17:26;;;;;;;6.90;3.60;;;23.60;43.60;;;;;;5094153;28;20483;-57
2023/05/24 11:19:54;;;;;;;8.30;4.23;;;24.30;44.60;;;;;;5094405;28;20451;-57
2023/05/24 11:22:23;;;;;;;8.97;4.40;;;24.90;42.40;;;;;;5098432;28;20451;-56
2023/05/24 11:24:52;;;;;;;11.23;4.10;;;25.10;40.40;;;;;;5100609;28;20439;-57
2023/05/24 11:27:19;;;;;;;9.53;4.20;;;25.10;40.10;;;;;;5096118;28;20468;-57
2023/05/24 11:29:47;;;;;;;11.60;4.03;;;25.10;40.30;;;;;;5094122;28;21007;-57
2023/05/24 11:32:16;;;;;;;10.60;3.70;;;25.10;39.80;;;;;;5094903;28;20500;-57
2023/05/24 11:34:44;;;;;;;7.20;3.30;;;25.00;39.70;;;;;;5093868;28;20448;-57
2023/05/24 11:37:12;;;;;;;9.30;3.57;;;25.30;39.60;;;;;;5094074;28;20816;-57
2023/05/24 11:39:40;;;;;;;7.97;4.10;;;25.80;37.80;;;;;;5094147;28;20448;-57
2023/05/24 11:42:08;;;;;;;7.77;3.63;;;26.20;38.40;;;;;;5093767;28;20937;-57
2023/05/24 11:44:37;;;;;;;6.90;3.50;;;26.70;37.70;;;;;;5093958;28;20447;-57
2023/05/24 11:47:07;;;;;;;7.53;3.57;;;26.70;35.60;;;;;;5093684;28;21020;-57
2023/05/24 11:49:34;;;;;;;6.97;3.13;;;26.50;36.10;;;;;;5094232;28;20455;-57
2023/05/24 11:52:01;;;;;;;5.93;3.70;;;26.50;36.30;;;;;;5093812;28;20524;-57
2023/05/24 11:54:29;;;;;;;6.70;2.90;;;26.30;35.20;;;;;;5093254;28;20448;-57
2023/05/24 11:56:57;;;;;;;6.87;3.47;;;26.20;36.80;;;;;;5093611;28;20479;-57
2023/05/24 11:59:25;;;;;;;6.30;3.20;;;26.60;37.90;;;;;;5093688;28;20452;-57
2023/05/24 12:01:58;;;;;;;9.33;4.20;;;27.30;35.60;;;;;;5093716;28;20444;-57
2023/05/24 12:04:26;;;;;;;9.13;3.50;;;27.60;34.20;;;;;;5093389;28;20928;-57
2023/05/24 12:06:53;;;;;;;9.07;4.00;;;27.20;34.10;;;;;;5093261;28;20843;-57
2023/05/24 12:09:20;;;;;;;8.77;3.83;;;26.60;34.10;;;;;;5093626;28;20447;-57
2023/05/24 12:11:48;;;;;;;7.10;3.60;;;25.90;35.00;;;;;;5093154;28;20463;-57
2023/05/24 12:14:19;;;;;;;10.00;3.70;;;25.20;36.40;;;;;;5093621;28;20447;-56
2023/05/24 12:16:46;;;;;;;6.97;3.17;;;24.40;37.50;;;;;;5094442;28;20488;-56
2023/05/24 12:19:16;;;;;;;6.97;3.20;;;23.70;38.70;;;;;;5093241;28;20937;-56
2023/05/24 12:21:43;;;;;;;7.90;3.67;;;23.20;39.90;;;;;;5093400;28;20493;-56
2023/05/24 12:24:11;;;;;;;9.93;3.53;;;22.80;41.30;;;;;;5093509;28;20452;-56
2023/05/24 12:26:41;;;;;;;8.50;3.20;;;22.40;42.30;;;;;;5093285;28;20517;-56
2023/05/24 12:29:10;;;;;;;8.70;3.23;;;22.00;42.90;;;;;;5093464;28;20444;-56
2023/05/24 12:31:39;;;;;;;11.80;3.40;;;21.70;43.30;;;;;;5093406;28;20862;-56
2023/05/24 12:34:06;;;;;;;10.13;3.93;;;21.30;44.20;;;;;;5094198;28;20458;-56
2023/05/24 12:36:34;;;;;;;7.47;3.70;;;21.10;44.80;;;;;;5093145;28;20509;-56
2023/05/24 12:39:04;;;;;;;10.00;3.50;;;20.80;45.20;;;;;;5093369;28;20480;-56
2023/05/24 12:41:32;;;;;;;11.80;3.50;;;20.70;45.80;;;;;;5093242;28;20454;-57
2023/05/24 12:43:59;;;;;;;9.37;3.37;;;20.60;45.90;;;;;;5093278;28;20444;-56